Time;durP1;ratioP1;P1;durP2;ratioP2;P2;SDS_P1;SDS_P2;PMS_P1;PMS_P2;Temp;Humidity;BMP_temperature;BMP_pressure;BME280_temperature;BME280_humidity;BME280_pressure;Samples;Min_cycle;Max_cycle;Signal;HPM_P1;HPM_P2
2021/07/18 00:01:42;;;;;;;18.80;15.20;;;;;;;;;;5075225;28;20536;-65
2021/07/18 00:04:08;;;;;;;16.38;13.40;;;;;;;;;;5093349;28;20020;-64
2021/07/18 00:06:34;;;;;;;17.98;14.10;;;;;;;;;;5093067;28;20364;-64
2021/07/18 00:08:59;;;;;;;18.20;14.50;;;;;;;;;;5093107;28;20490;-65
2021/07/18 00:11:25;;;;;;;18.70;14.35;;;;;;;;;;5093255;28;20028;-64
2021/07/18 00:13:50;;;;;;;17.08;14.13;;;;;;;;;;5093245;28;20455;-64
2021/07/18 00:16:16;;;;;;;15.80;14.18;;;;;;;;;;5093117;28;20024;-64
2021/07/18 00:18:41;;;;;;;16.88;15.07;;;;;;;;;;5075145;28;20020;-64
2021/07/18 00:21:07;;;;;;;20.33;14.93;;;;;;;;;;5093315;28;20036;-65
2021/07/18 00:23:33;;;;;;;17.58;14.93;;;;;;;;;;5093126;28;20521;-64
2021/07/18 00:25:58;;;;;;;22.40;15.00;;;;;;;;;;5092880;28;20123;-64
2021/07/18 00:28:24;;;;;;;17.00;14.55;;;;;;;;;;5075000;28;20040;-64
2021/07/18 00:30:49;;;;;;;15.75;14.07;;;;;;;;;;5074938;28;20024;-64
2021/07/18 00:33:14;;;;;;;16.42;14.73;;;;;;;;;;5093037;28;20454;-64
2021/07/18 00:35:40;;;;;;;15.95;14.25;;;;;;;;;;5092486;28;20032;-63
2021/07/18 00:38:05;;;;;;;16.13;14.55;;;;;;;;;;5093006;28;20030;-65
2021/07/18 00:40:31;;;;;;;16.67;14.88;;;;;;;;;;5092470;28;20131;-65
2021/07/18 00:42:57;;;;;;;16.63;14.52;;;;;;;;;;5092817;28;20062;-64
2021/07/18 00:45:28;;;;;;;15.98;14.30;;;;;;;;;;5092785;28;20031;-64
2021/07/18 00:47:54;;;;;;;19.00;14.10;;;;;;;;;;5092986;28;20036;-63
2021/07/18 00:50:20;;;;;;;17.38;14.68;;;;;;;;;;5092714;28;20012;-63
2021/07/18 00:52:45;;;;;;;16.27;14.10;;;;;;;;;;5093030;28;20368;-63
2021/07/18 00:55:11;;;;;;;16.83;14.23;;;;;;;;;;5092709;28;20024;-63
2021/07/18 00:57:38;;;;;;;15.30;13.57;;;;;;;;;;5092543;28;20039;-63
2021/07/18 01:00:07;;;;;;;16.40;13.85;;;;;;;;;;5093399;28;20016;-63
2021/07/18 01:02:33;;;;;;;16.65;13.88;;;;;;;;;;5096609;28;20035;-63
2021/07/18 01:04:59;;;;;;;15.77;14.07;;;;;;;;;;5096181;28;20020;-63
2021/07/18 01:07:25;;;;;;;18.17;14.13;;;;;;;;;;5096241;28;20020;-63
2021/07/18 01:09:50;;;;;;;18.85;13.93;;;;;;;;;;5096304;28;20352;-64
2021/07/18 01:12:16;;;;;;;16.73;13.70;;;;;;;;;;5096146;28;20032;-63
2021/07/18 01:14:42;;;;;;;16.55;14.13;;;;;;;;;;5095945;28;20020;-63
2021/07/18 01:17:08;;;;;;;16.85;13.98;;;;;;;;;;5096205;28;20034;-63
2021/07/18 01:19:34;;;;;;;15.65;14.00;;;;;;;;;;5077992;28;20107;-73
2021/07/18 01:22:00;;;;;;;15.05;13.55;;;;;;;;;;5096111;28;20043;-73
2021/07/18 01:24:26;;;;;;;16.17;14.35;;;;;;;;;;5077700;28;20027;-73
2021/07/18 01:26:52;;;;;;;20.40;16.10;;;;;;;;;;5095887;28;20080;-74
2021/07/18 01:29:17;;;;;;;20.63;16.50;;;;;;;;;;5095997;28;20099;-73
2021/07/18 01:31:43;;;;;;;18.60;15.48;;;;;;;;;;5095400;28;20020;-73
2021/07/18 01:34:09;;;;;;;15.40;13.95;;;;;;;;;;5095804;28;20016;-73
2021/07/18 01:36:35;;;;;;;18.50;14.15;;;;;;;;;;5095575;28;20139;-73
2021/07/18 01:39:04;;;;;;;17.45;14.07;;;;;;;;;;5095667;28;20098;-73
2021/07/18 01:41:30;;;;;;;16.98;14.73;;;;;;;;;;5095112;28;20501;-73
2021/07/18 01:43:55;;;;;;;18.17;14.85;;;;;;;;;;5095481;28;20032;-73
2021/07/18 01:46:21;;;;;;;16.20;14.50;;;;;;;;;;5095418;28;20490;-73
2021/07/18 01:48:50;;;;;;;17.70;14.57;;;;;;;;;;5095381;28;20479;-73
2021/07/18 01:51:19;;;;;;;17.67;14.38;;;;;;;;;;5077323;28;20031;-73
2021/07/18 01:53:45;;;;;;;16.40;14.37;;;;;;;;;;5095726;28;20460;-74
2021/07/18 01:56:10;;;;;;;20.05;14.00;;;;;;;;;;5095233;28;20032;-73
2021/07/18 01:58:36;;;;;;;15.50;14.00;;;;;;;;;;5095155;28;20020;-73
2021/07/18 02:01:01;;;;;;;15.73;14.23;;;;;;;;;;5095043;28;20024;-73
2021/07/18 02:03:27;;;;;;;17.02;13.95;;;;;;;;;;5077004;28;20012;-73
2021/07/18 02:05:52;;;;;;;15.25;13.68;;;;;;;;;;5095008;28;20034;-73
2021/07/18 02:08:18;;;;;;;16.05;14.25;;;;;;;;;;5095119;28;20479;-73
2021/07/18 02:10:45;;;;;;;15.68;13.98;;;;;;;;;;5094665;28;20031;-73
2021/07/18 02:13:13;;;;;;;14.32;12.82;;;;;;;;;;5095035;28;20015;-72
2021/07/18 02:15:39;;;;;;;14.68;13.13;;;;;;;;;;5095174;28;20032;-73
2021/07/18 02:18:04;;;;;;;14.73;13.07;;;;;;;;;;5094922;28;20486;-73
2021/07/18 02:20:30;;;;;;;15.20;13.52;;;;;;;;;;5095180;28;20024;-73
2021/07/18 02:22:55;;;;;;;18.50;14.43;;;;;;;;;;5094924;28;20024;-73
2021/07/18 02:25:22;;;;;;;15.60;13.13;;;;;;;;;;5094233;28;20485;-73
2021/07/18 02:27:48;;;;;;;15.45;12.50;;;;;;;;;;5077077;28;20372;-74
2021/07/18 02:30:16;;;;;;;14.93;13.40;;;;;;;;;;5094494;28;20028;-74
2021/07/18 02:32:42;;;;;;;14.50;12.77;;;;;;;;;;5076656;28;20012;-74
2021/07/18 02:35:09;;;;;;;15.25;13.02;;;;;;;;;;5076618;28;20040;-74
2021/07/18 02:37:35;;;;;;;13.88;12.50;;;;;;;;;;5076242;28;20020;-72
2021/07/18 02:40:01;;;;;;;14.68;13.20;;;;;;;;;;5093968;28;20028;-72
2021/07/18 02:42:26;;;;;;;16.60;14.90;;;;;;;;;;5076357;28;20028;-72
2021/07/18 02:44:53;;;;;;;17.90;14.40;;;;;;;;;;5094258;28;20360;-73
2021/07/18 02:47:18;;;;;;;16.35;13.60;;;;;;;;;;5094601;28;20024;-72
2021/07/18 02:49:44;;;;;;;17.48;13.93;;;;;;;;;;5094492;28;20024;-72
2021/07/18 02:52:10;;;;;;;15.18;13.73;;;;;;;;;;5094376;28;20507;-63
2021/07/18 02:54:35;;;;;;;14.70;13.10;;;;;;;;;;5094179;28;20086;-63
2021/07/18 02:57:00;;;;;;;17.00;14.02;;;;;;;;;;5094230;28;20459;-63
2021/07/18 02:59:26;;;;;;;18.30;14.18;;;;;;;;;;5094032;28;20106;-63
2021/07/18 03:01:51;;;;;;;16.90;14.00;;;;;;;;;;5093988;28;20066;-64
2021/07/18 03:04:17;;;;;;;17.23;13.77;;;;;;;;;;5094105;28;20130;-64
2021/07/18 03:06:42;;;;;;;16.63;13.43;;;;;;;;;;5094025;28;20434;-63
2021/07/18 03:09:08;;;;;;;17.65;14.00;;;;;;;;;;5093885;28;20024;-63
2021/07/18 03:11:33;;;;;;;15.35;13.75;;;;;;;;;;5093783;28;20023;-63
2021/07/18 03:13:59;;;;;;;15.98;14.32;;;;;;;;;;5093618;28;20024;-63
2021/07/18 03:16:24;;;;;;;15.48;13.40;;;;;;;;;;5093704;28;20020;-63
2021/07/18 03:18:50;;;;;;;16.95;14.73;;;;;;;;;;5093849;28;20115;-63
2021/07/18 03:21:15;;;;;;;14.90;13.40;;;;;;;;;;5093298;28;20028;-63
2021/07/18 03:23:41;;;;;;;16.00;13.93;;;;;;;;;;5093427;28;20028;-63
2021/07/18 03:26:06;;;;;;;17.13;13.57;;;;;;;;;;5075468;28;20368;-64
2021/07/18 03:28:32;;;;;;;14.95;13.43;;;;;;;;;;5093945;28;20016;-64
2021/07/18 03:30:57;;;;;;;17.45;14.07;;;;;;;;;;5093661;28;20089;-72
2021/07/18 03:33:23;;;;;;;15.45;13.93;;;;;;;;;;5093886;28;20032;-72
2021/07/18 03:35:49;;;;;;;20.05;14.52;;;;;;;;;;5093694;28;20031;-73
2021/07/18 03:38:14;;;;;;;17.15;14.38;;;;;;;;;;5093712;28;20032;-73
2021/07/18 03:40:40;;;;;;;16.25;14.00;;;;;;;;;;5093227;28;20449;-73
2021/07/18 03:43:05;;;;;;;17.35;13.60;;;;;;;;;;5093540;28;20067;-73
2021/07/18 03:45:31;;;;;;;15.15;13.32;;;;;;;;;;5093512;28;20020;-73
2021/07/18 03:47:56;;;;;;;17.25;13.65;;;;;;;;;;5075209;28;20440;-73
2021/07/18 03:50:22;;;;;;;14.80;13.30;;;;;;;;;;5075506;28;20412;-73
2021/07/18 03:52:48;;;;;;;15.95;14.00;;;;;;;;;;5075365;28;20020;-72
2021/07/18 03:55:14;;;;;;;15.70;14.13;;;;;;;;;;5093635;28;20364;-65
2021/07/18 03:57:40;;;;;;;16.95;13.52;;;;;;;;;;5093415;28;20028;-65
2021/07/18 04:00:06;;;;;;;15.45;13.82;;;;;;;;;;5075254;28;20057;-65
2021/07/18 04:02:32;;;;;;;16.50;14.50;;;;;;;;;;5075033;28;20113;-65
2021/07/18 04:04:57;;;;;;;17.85;14.15;;;;;;;;;;5093062;28;20060;-73
2021/07/18 04:07:32;;;;;;;17.85;14.80;;;;;;;;;;5093315;28;20031;-73
2021/07/18 04:10:02;;;;;;;16.23;14.27;;;;;;;;;;5093503;28;20453;-73
2021/07/18 04:12:28;;;;;;;16.58;14.15;;;;;;;;;;5093174;28;20016;-73
2021/07/18 04:14:54;;;;;;;14.80;13.30;;;;;;;;;;5092717;28;20065;-73
2021/07/18 04:17:20;;;;;;;16.90;13.82;;;;;;;;;;5093085;28;20566;-73
2021/07/18 04:19:45;;;;;;;16.10;13.80;;;;;;;;;;5093058;28;20047;-72
2021/07/18 04:22:11;;;;;;;14.32;12.77;;;;;;;;;;5075017;28;20030;-72
2021/07/18 04:24:36;;;;;;;15.45;13.13;;;;;;;;;;5093071;28;20089;-72
2021/07/18 04:27:02;;;;;;;15.75;13.20;;;;;;;;;;5093260;28;20411;-65
2021/07/18 04:29:27;;;;;;;14.30;12.80;;;;;;;;;;5093112;28;20047;-65
2021/07/18 04:31:53;;;;;;;15.27;13.68;;;;;;;;;;5093137;28;20479;-64
2021/07/18 04:34:18;;;;;;;16.58;13.32;;;;;;;;;;5094347;28;20028;-64
2021/07/18 04:36:44;;;;;;;14.27;12.88;;;;;;;;;;5096895;28;20502;-64
2021/07/18 04:39:10;;;;;;;16.73;13.13;;;;;;;;;;5078717;28;20028;-64
2021/07/18 04:41:37;;;;;;;13.68;12.30;;;;;;;;;;5096339;28;20055;-73
2021/07/18 04:44:03;;;;;;;13.52;12.10;;;;;;;;;;5096716;28;20442;-63
2021/07/18 04:46:29;;;;;;;14.15;12.40;;;;;;;;;;5078541;28;20410;-63
2021/07/18 04:48:54;;;;;;;12.20;10.93;;;;;;;;;;5078443;28;20024;-63
2021/07/18 04:51:20;;;;;;;12.05;10.80;;;;;;;;;;5096334;28;20020;-62
2021/07/18 04:53:45;;;;;;;12.25;11.05;;;;;;;;;;5096443;28;20027;-64
2021/07/18 04:56:11;;;;;;;12.68;11.15;;;;;;;;;;5096465;28;20467;-64
2021/07/18 04:58:37;;;;;;;13.10;11.80;;;;;;;;;;5096655;28;20028;-63
2021/07/18 05:01:03;;;;;;;12.55;11.02;;;;;;;;;;5096519;28;20464;-62
2021/07/18 05:03:28;;;;;;;11.57;10.40;;;;;;;;;;5096419;28;20028;-63
2021/07/18 05:05:54;;;;;;;12.27;10.75;;;;;;;;;;5095951;28;20020;-63
2021/07/18 05:08:20;;;;;;;11.98;10.68;;;;;;;;;;5096003;28;20246;-73
2021/07/18 05:10:46;;;;;;;11.25;10.07;;;;;;;;;;5078233;28;20395;-74
2021/07/18 05:13:12;;;;;;;11.07;9.88;;;;;;;;;;5096250;28;20032;-74
2021/07/18 05:15:39;;;;;;;10.77;9.73;;;;;;;;;;5096187;28;20022;-62
2021/07/18 05:18:12;;;;;;;20.65;9.63;;;;;;;;;;5096166;28;20066;-62
2021/07/18 05:20:38;;;;;;;10.07;9.10;;;;;;;;;;5095968;28;20032;-63
2021/07/18 05:23:03;;;;;;;10.25;9.18;;;;;;;;;;5095897;28;20046;-73
2021/07/18 05:25:29;;;;;;;9.98;8.98;;;;;;;;;;5095130;28;20082;-74
2021/07/18 05:27:54;;;;;;;10.80;9.10;;;;;;;;;;5095340;28;20023;-74
2021/07/18 05:30:20;;;;;;;10.82;9.70;;;;;;;;;;5095182;28;20086;-74
2021/07/18 05:32:46;;;;;;;10.57;9.52;;;;;;;;;;5095277;28;20025;-73
2021/07/18 05:35:11;;;;;;;13.88;11.40;;;;;;;;;;5095158;28;20063;-74
2021/07/18 05:37:37;;;;;;;13.57;10.25;;;;;;;;;;5095048;28;20027;-73
2021/07/18 05:40:04;;;;;;;12.00;10.45;;;;;;;;;;5094636;28;20035;-65
2021/07/18 05:42:30;;;;;;;13.32;11.40;;;;;;;;;;5094987;28;20068;-64
2021/07/18 05:44:55;;;;;;;15.52;12.02;;;;;;;;;;5094906;28;20063;-64
2021/07/18 05:47:21;;;;;;;12.75;11.38;;;;;;;;;;5076419;28;20020;-64
2021/07/18 05:49:46;;;;;;;13.45;12.15;;;;;;;;;;5095250;28;20082;-64
2021/07/18 05:52:15;;;;;;;14.35;10.77;;;;;;;;;;5095023;28;20005;-64
2021/07/18 05:54:40;;;;;;;12.00;10.52;;;;;;;;;;5094504;28;20417;-64
2021/07/18 05:57:06;;;;;;;12.52;11.13;;;;;;;;;;5076771;28;20077;-64
2021/07/18 05:59:32;;;;;;;12.73;10.57;;;;;;;;;;5076620;28;20028;-63
2021/07/18 06:01:57;;;;;;;11.40;10.32;;;;;;;;;;5076415;28;20062;-64
2021/07/18 06:04:24;;;;;;;11.57;9.73;;;;;;;;;;5093762;28;20070;-64
2021/07/18 06:06:50;;;;;;;10.02;9.10;;;;;;;;;;5094801;28;20073;-64
2021/07/18 06:09:15;;;;;;;13.63;10.30;;;;;;;;;;5094101;28;20024;-64
2021/07/18 06:11:41;;;;;;;11.10;9.98;;;;;;;;;;5076313;28;20010;-64
2021/07/18 06:14:06;;;;;;;12.07;10.88;;;;;;;;;;5094205;28;20109;-64
2021/07/18 06:16:32;;;;;;;12.88;9.68;;;;;;;;;;5094519;28;20074;-64
2021/07/18 06:18:57;;;;;;;10.52;9.57;;;;;;;;;;5094204;28;20210;-64
2021/07/18 06:21:23;;;;;;;10.02;8.88;;;;;;;;;;5094415;28;20019;-64
2021/07/18 06:23:49;;;;;;;11.10;9.40;;;;;;;;;;5094415;28;20403;-64
2021/07/18 06:26:15;;;;;;;10.32;8.98;;;;;;;;;;5094580;28;20072;-64
2021/07/18 06:28:41;;;;;;;9.60;8.70;;;;;;;;;;5067031;28;20028;-64
2021/07/18 06:31:06;;;;;;;11.90;8.23;;;;;;;;;;5091246;28;20470;-63
2021/07/18 06:33:32;;;;;;;9.13;8.23;;;;;;;;;;5090044;28;20052;-63
2021/07/18 06:35:57;;;;;;;8.77;8.00;;;;;;;;;;5090347;28;20080;-63
2021/07/18 06:38:24;;;;;;;8.75;7.80;;;;;;;;;;5089922;28;20471;-63
2021/07/18 06:40:49;;;;;;;9.07;7.63;;;;;;;;;;5086725;28;20055;-63
2021/07/18 06:43:15;;;;;;;9.30;8.27;;;;;;;;;;5091081;28;20040;-63
2021/07/18 06:45:41;;;;;;;10.20;8.50;;;;;;;;;;5090389;28;20019;-63
2021/07/18 06:48:06;;;;;;;8.07;7.45;;;;;;;;;;5090626;28;20024;-63
2021/07/18 06:50:32;;;;;;;9.57;8.27;;;;;;;;;;5090692;28;20062;-62
2021/07/18 06:52:58;;;;;;;8.02;7.30;;;;;;;;;;5071741;28;20499;-63
2021/07/18 06:55:23;;;;;;;8.82;7.30;;;;;;;;;;5090529;28;20048;-62
2021/07/18 06:57:50;;;;;;;7.88;7.13;;;;;;;;;;5090066;28;20483;-63
2021/07/18 07:00:16;;;;;;;7.45;6.80;;;;;;;;;;5071860;28;20036;-63
2021/07/18 07:02:42;;;;;;;8.77;7.75;;;;;;;;;;5090589;28;20122;-63
2021/07/18 07:05:08;;;;;;;8.18;7.38;;;;;;;;;;5071577;28;20103;-63
2021/07/18 07:07:34;;;;;;;8.57;7.07;;;;;;;;;;5089523;28;20028;-62
2021/07/18 07:09:59;;;;;;;7.57;6.88;;;;;;;;;;5090304;28;20016;-63
2021/07/18 07:12:26;;;;;;;8.57;7.60;;;;;;;;;;5090204;28;20035;-62
2021/07/18 07:14:51;;;;;;;8.63;7.72;;;;;;;;;;5071793;28;20031;-63
2021/07/18 07:17:16;;;;;;;8.38;6.93;;;;;;;;;;5090112;28;20035;-63
2021/07/18 07:19:42;;;;;;;9.23;8.32;;;;;;;;;;5072218;28;20016;-62
2021/07/18 07:22:08;;;;;;;8.63;7.78;;;;;;;;;;5090143;28;20032;-63
2021/07/18 07:24:34;;;;;;;9.95;8.25;;;;;;;;;;5089928;28;20024;-62
2021/07/18 07:27:00;;;;;;;9.25;7.93;;;;;;;;;;5070892;28;20026;-63
2021/07/18 07:29:26;;;;;;;15.98;8.88;;;;;;;;;;5089338;28;20382;-63
2021/07/18 07:31:51;;;;;;;8.35;7.57;;;;;;;;;;5089830;28;20036;-63
2021/07/18 07:34:17;;;;;;;8.27;7.47;;;;;;;;;;5089907;28;20016;-62
2021/07/18 07:36:42;;;;;;;12.85;8.40;;;;;;;;;;5089747;28;20039;-63
2021/07/18 07:39:08;;;;;;;9.50;8.60;;;;;;;;;;5089884;28;20024;-67
2021/07/18 07:41:34;;;;;;;14.73;9.48;;;;;;;;;;5089741;28;20131;-62
2021/07/18 07:44:00;;;;;;;11.23;9.27;;;;;;;;;;5089871;28;20054;-62
2021/07/18 07:46:26;;;;;;;11.48;9.48;;;;;;;;;;5090043;28;20083;-64
2021/07/18 07:48:53;;;;;;;11.48;8.80;;;;;;;;;;5089792;28;20016;-62
2021/07/18 07:51:18;;;;;;;10.23;8.63;;;;;;;;;;5090386;28;20032;-63
2021/07/18 07:53:44;;;;;;;10.23;8.93;;;;;;;;;;5071535;28;20027;-63
2021/07/18 07:56:10;;;;;;;12.50;10.48;;;;;;;;;;5071913;28;20563;-63
2021/07/18 07:58:35;;;;;;;11.52;9.40;;;;;;;;;;5089970;28;20012;-63
2021/07/18 08:01:01;;;;;;;14.18;10.90;;;;;;;;;;5089933;28;20506;-63
2021/07/18 08:03:27;;;;;;;12.13;10.32;;;;;;;;;;5090223;28;20056;-63
2021/07/18 08:05:52;;;;;;;15.45;11.55;;;;;;;;;;5089860;28;20039;-63
2021/07/18 08:08:18;;;;;;;17.85;14.45;;;;;;;;;;5071551;28;20074;-63
2021/07/18 08:10:44;;;;;;;14.45;11.45;;;;;;;;;;5093786;28;20032;-63
2021/07/18 08:13:09;;;;;;;17.60;14.27;;;;;;;;;;5093914;28;20023;-63
2021/07/18 08:15:36;;;;;;;18.83;14.68;;;;;;;;;;5094171;28;20034;-63
2021/07/18 08:18:01;;;;;;;20.25;13.88;;;;;;;;;;5094519;28;20020;-63
2021/07/18 08:20:27;;;;;;;18.38;14.98;;;;;;;;;;5097434;28;20111;-63
2021/07/18 08:22:54;;;;;;;25.85;18.85;;;;;;;;;;5097170;28;20081;-63
2021/07/18 08:25:22;;;;;;;26.80;19.63;;;;;;;;;;5097187;28;20028;-64
2021/07/18 08:27:47;;;;;;;26.48;19.42;;;;;;;;;;5097285;28;20013;-64
2021/07/18 08:30:14;;;;;;;23.58;18.42;;;;;;;;;;5096950;28;20028;-64
2021/07/18 08:32:40;;;;;;;24.20;17.67;;;;;;;;;;5096543;28;20047;-64
2021/07/18 08:35:06;;;;;;;23.10;16.27;;;;;;;;;;5078292;28;20058;-63
2021/07/18 08:37:31;;;;;;;24.98;18.27;;;;;;;;;;5096876;28;20047;-64
2021/07/18 08:39:57;;;;;;;24.92;18.40;;;;;;;;;;5078394;28;20020;-64
2021/07/18 08:42:23;;;;;;;24.05;17.58;;;;;;;;;;5078444;28;20474;-64
2021/07/18 08:44:48;;;;;;;22.33;17.90;;;;;;;;;;5096380;28;20119;-64
2021/07/18 08:47:16;;;;;;;21.05;16.67;;;;;;;;;;5096430;28;20493;-64
2021/07/18 08:49:42;;;;;;;18.35;15.27;;;;;;;;;;5096366;28;20028;-64
2021/07/18 08:52:07;;;;;;;18.83;15.52;;;;;;;;;;5096323;28;20088;-64
2021/07/18 08:54:32;;;;;;;18.65;15.50;;;;;;;;;;5096349;28;20545;-64
2021/07/18 08:57:02;;;;;;;16.75;13.38;;;;;;;;;;5096191;28;20024;-64
2021/07/18 08:59:28;;;;;;;17.40;14.70;;;;;;;;;;5096218;28;20564;-64
2021/07/18 09:01:54;;;;;;;22.58;14.15;;;;;;;;;;5096063;28;20028;-63
2021/07/18 09:04:19;;;;;;;19.33;14.35;;;;;;;;;;5078088;28;20051;-64
2021/07/18 09:06:51;;;;;;;15.43;12.27;;;;;;;;;;5077884;28;20459;-64
2021/07/18 09:09:18;;;;;;;17.63;14.00;;;;;;;;;;5096125;28;20031;-64
2021/07/18 09:11:53;;;;;;;16.25;13.20;;;;;;;;;;5095975;28;20482;-64
2021/07/18 09:14:18;;;;;;;19.25;12.07;;;;;;;;;;5096040;28;20028;-64
2021/07/18 09:16:43;;;;;;;15.63;13.30;;;;;;;;;;5096016;28;20106;-64
2021/07/18 09:19:23;;;;;;;17.23;14.15;;;;;;;;;;5095786;28;20028;-64
2021/07/18 09:21:50;;;;;;;22.67;15.93;;;;;;;;;;5094385;28;20056;-64
2021/07/18 09:24:19;;;;;;;17.27;13.88;;;;;;;;;;5095779;28;20020;-64
2021/07/18 09:27:01;;;;;;;21.63;14.60;;;;;;;;;;5095815;28;20127;-64
2021/07/18 09:29:27;;;;;;;19.25;15.75;;;;;;;;;;5095793;28;20069;-64
2021/07/18 09:32:00;;;;;;;18.83;15.05;;;;;;;;;;5095553;28;20142;-64
2021/07/18 09:34:31;;;;;;;18.95;15.63;;;;;;;;;;5095545;28;20150;-64
2021/07/18 09:37:02;;;;;;;25.48;18.05;;;;;;;;;;5095435;28;20527;-64
2021/07/18 09:39:28;;;;;;;21.75;16.80;;;;;;;;;;5095450;28;20066;-64
2021/07/18 09:41:57;;;;;;;29.50;24.30;;;;;;;;;;5095304;28;20056;-64
2021/07/18 09:44:23;;;;;;;29.23;23.20;;;;;;;;;;5095162;28;20027;-64
2021/07/18 09:46:49;;;;;;;30.38;24.75;;;;;;;;;;5095256;28;20047;-64
2021/07/18 09:49:33;;;;;;;32.97;24.33;;;;;;;;;;5095154;28;20024;-64
2021/07/18 09:52:11;;;;;;;24.10;21.48;;;;;;;;;;5095225;28;20518;-64
2021/07/18 09:54:36;;;;;;;25.80;21.88;;;;;;;;;;5095233;28;20052;-64
2021/07/18 09:57:02;;;;;;;25.88;22.90;;;;;;;;;;5095133;28;20058;-64
2021/07/18 09:59:28;;;;;;;25.60;22.33;;;;;;;;;;5095199;28;20032;-64
2021/07/18 10:01:54;;;;;;;30.42;24.13;;;;;;;;;;5095072;28;20023;-64
2021/07/18 10:04:19;;;;;;;18.23;15.60;;;;;;;;;;5095075;28;20035;-64
2021/07/18 10:06:45;;;;;;;25.02;22.23;;;;;;;;;;5076704;28;20459;-64
2021/07/18 10:09:13;;;;;;;23.77;21.23;;;;;;;;;;5094892;28;20024;-64
2021/07/18 10:11:38;;;;;;;31.38;23.70;;;;;;;;;;5094866;28;20012;-64
2021/07/18 10:14:07;;;;;;;26.88;22.88;;;;;;;;;;5094869;28;20174;-64
2021/07/18 10:16:32;;;;;;;26.02;20.92;;;;;;;;;;5094815;28;20103;-64
2021/07/18 10:18:58;;;;;;;30.25;21.65;;;;;;;;;;5094731;28;20051;-64
2021/07/18 10:21:24;;;;;;;25.45;22.05;;;;;;;;;;5094695;28;20050;-64
2021/07/18 10:23:51;;;;;;;25.42;21.58;;;;;;;;;;5094643;28;20032;-64
2021/07/18 10:26:18;;;;;;;20.98;17.30;;;;;;;;;;5094488;28;20016;-64
2021/07/18 10:28:44;;;;;;;19.45;14.80;;;;;;;;;;5094570;28;20440;-64
2021/07/18 10:31:30;;;;;;;16.40;14.70;;;;;;;;;;5076290;28;20051;-64
2021/07/18 10:33:56;;;;;;;22.75;20.35;;;;;;;;;;5094185;28;20559;-64
2021/07/18 10:36:22;;;;;;;20.45;18.25;;;;;;;;;;5094247;28;20099;-64
2021/07/18 10:38:48;;;;;;;22.95;19.75;;;;;;;;;;5059532;28;20403;-64
2021/07/18 10:41:15;;;;;;;21.00;17.20;;;;;;;;;;5094010;28;20048;-64
2021/07/18 10:43:45;;;;;;;18.80;16.80;;;;;;;;;;5094130;28;20511;-64
2021/07/18 10:46:12;;;;;;;14.20;12.77;;;;;;;;;;5094157;28;20115;-64
2021/07/18 10:48:45;;;;;;;12.95;11.57;;;;;;;;;;5094086;28;20005;-64
2021/07/18 10:51:11;;;;;;;12.30;10.52;;;;;;;;;;5093995;28;20059;-64
2021/07/18 10:53:38;;;;;;;12.45;10.48;;;;;;;;;;5094090;28;20026;-64
2021/07/18 10:56:04;;;;;;;16.33;11.60;;;;;;;;;;5093957;28;20106;-64
2021/07/18 10:58:38;;;;;;;12.88;10.85;;;;;;;;;;5093902;28;20383;-64
2021/07/18 11:01:10;;;;;;;11.88;10.25;;;;;;;;;;5093813;28;20135;-64
2021/07/18 11:03:37;;;;;;;11.95;10.73;;;;;;;;;;5075734;28;20028;-64
2021/07/18 11:06:22;;;;;;;10.80;9.43;;;;;;;;;;5093713;28;20050;-64
2021/07/18 11:09:05;;;;;;;12.10;9.10;;;;;;;;;;5093703;28;20028;-64
2021/07/18 11:11:37;;;;;;;11.13;9.98;;;;;;;;;;5093677;28;20106;-64
2021/07/18 11:14:21;;;;;;;15.50;10.45;;;;;;;;;;5093778;28;20111;-64
2021/07/18 11:16:47;;;;;;;12.18;8.88;;;;;;;;;;5075577;28;20035;-64
2021/07/18 11:19:31;;;;;;;9.80;8.90;;;;;;;;;;5093587;28;20379;-64
2021/07/18 11:21:56;;;;;;;9.57;8.63;;;;;;;;;;5075410;28;20028;-64
2021/07/18 11:24:40;;;;;;;8.75;7.43;;;;;;;;;;5093502;28;20027;-64
2021/07/18 11:27:25;;;;;;;8.88;7.97;;;;;;;;;;5093396;28;20020;-64
2021/07/18 11:29:51;;;;;;;10.02;8.73;;;;;;;;;;5075385;28;20540;-64
2021/07/18 11:32:20;;;;;;;8.48;7.68;;;;;;;;;;5075238;28;20076;-64
2021/07/18 11:34:46;;;;;;;7.82;7.13;;;;;;;;;;5092900;28;20027;-64
2021/07/18 11:37:12;;;;;;;8.55;7.30;;;;;;;;;;5058506;28;20353;-64
2021/07/18 11:39:38;;;;;;;11.90;7.70;;;;;;;;;;5093164;28;20032;-64
2021/07/18 11:42:04;;;;;;;14.15;7.75;;;;;;;;;;5075113;28;20043;-64
2021/07/18 11:44:30;;;;;;;10.82;7.22;;;;;;;;;;5092541;28;20034;-64
2021/07/18 11:46:58;;;;;;;9.60;7.80;;;;;;;;;;5093093;28;20458;-64
2021/07/18 11:49:28;;;;;;;11.43;7.28;;;;;;;;;;5075201;28;20062;-64
2021/07/18 11:51:54;;;;;;;9.30;6.68;;;;;;;;;;5093119;28;20107;-64
2021/07/18 11:54:20;;;;;;;8.02;7.22;;;;;;;;;;5093071;28;20439;-64
2021/07/18 11:56:46;;;;;;;8.93;7.28;;;;;;;;;;5092998;28;20031;-64
2021/07/18 11:59:16;;;;;;;9.13;7.88;;;;;;;;;;5093105;28;20024;-64
2021/07/18 12:01:43;;;;;;;7.57;6.75;;;;;;;;;;5093094;28;20086;-64
2021/07/18 12:04:10;;;;;;;7.78;6.85;;;;;;;;;;5093053;28;20024;-64
2021/07/18 12:06:36;;;;;;;7.35;6.65;;;;;;;;;;5092819;28;20050;-64
2021/07/18 12:09:11;;;;;;;8.38;7.00;;;;;;;;;;5092931;28;20008;-64
2021/07/18 12:11:37;;;;;;;7.63;6.90;;;;;;;;;;5092782;28;20070;-64
2021/07/18 12:14:04;;;;;;;7.15;6.35;;;;;;;;;;5093124;28;20023;-64
2021/07/18 12:16:30;;;;;;;7.40;6.13;;;;;;;;;;5093075;28;20028;-64
2021/07/18 12:18:56;;;;;;;9.52;6.45;;;;;;;;;;5092682;28;20092;-64
2021/07/18 12:21:22;;;;;;;8.30;6.80;;;;;;;;;;5075082;28;20372;-63
2021/07/18 12:24:08;;;;;;;7.63;6.55;;;;;;;;;;5075146;28;20024;-62
2021/07/18 12:26:34;;;;;;;7.97;7.22;;;;;;;;;;5093293;28;20020;-62
2021/07/18 12:29:07;;;;;;;8.88;6.85;;;;;;;;;;5092986;28;20459;-63
2021/07/18 12:31:33;;;;;;;9.05;6.95;;;;;;;;;;5075318;28;20577;-62
2021/07/18 12:33:58;;;;;;;7.60;6.93;;;;;;;;;;5092802;28;20020;-63
2021/07/18 12:36:24;;;;;;;9.45;6.78;;;;;;;;;;5092857;28;20514;-63
2021/07/18 12:38:50;;;;;;;7.05;6.45;;;;;;;;;;5092898;28;20024;-63
2021/07/18 12:41:16;;;;;;;7.75;7.03;;;;;;;;;;5092626;28;20109;-63
2021/07/18 12:43:41;;;;;;;7.78;7.07;;;;;;;;;;5074816;28;20475;-63
2021/07/18 12:46:10;;;;;;;9.40;7.03;;;;;;;;;;5093114;28;20020;-63
2021/07/18 12:48:35;;;;;;;6.72;6.22;;;;;;;;;;5093152;28;20020;-63
2021/07/18 12:51:13;;;;;;;7.85;6.88;;;;;;;;;;5092914;28;20115;-63
2021/07/18 12:53:39;;;;;;;7.38;6.63;;;;;;;;;;5092784;28;20026;-63
2021/07/18 12:56:07;;;;;;;7.45;6.70;;;;;;;;;;5095148;28;20382;-63
2021/07/18 12:58:41;;;;;;;9.45;7.05;;;;;;;;;;5078209;28;20119;-63
2021/07/18 13:01:09;;;;;;;7.07;6.47;;;;;;;;;;5096573;28;20039;-63
2021/07/18 13:03:40;;;;;;;7.68;6.88;;;;;;;;;;5095720;28;20403;-61
2021/07/18 13:06:10;;;;;;;7.00;6.40;;;;;;;;;;5096305;28;20077;-62
2021/07/18 13:08:36;;;;;;;8.18;7.00;;;;;;;;;;5096174;28;20460;-62
2021/07/18 13:11:02;;;;;;;8.55;7.28;;;;;;;;;;5096283;28;20051;-62
2021/07/18 13:13:32;;;;;;;7.60;6.90;;;;;;;;;;5096311;28;20048;-62
2021/07/18 13:15:59;;;;;;;7.65;6.10;;;;;;;;;;5096122;28;20048;-62
2021/07/18 13:18:31;;;;;;;7.30;6.50;;;;;;;;;;5095552;28;20024;-67
2021/07/18 13:21:08;;;;;;;7.80;6.25;;;;;;;;;;5093171;28;20023;-67
2021/07/18 13:23:34;;;;;;;11.07;7.22;;;;;;;;;;5095030;28;20028;-66
2021/07/18 13:25:59;;;;;;;9.75;6.95;;;;;;;;;;5077303;28;20521;-62
2021/07/18 13:28:26;;;;;;;10.50;7.50;;;;;;;;;;5077983;28;20527;-62
2021/07/18 13:30:52;;;;;;;6.63;6.03;;;;;;;;;;5096272;28;20024;-61
2021/07/18 13:33:20;;;;;;;7.97;7.20;;;;;;;;;;5095955;28;20029;-61
2021/07/18 13:35:47;;;;;;;9.23;7.40;;;;;;;;;;5095888;28;20360;-61
2021/07/18 13:38:26;;;;;;;11.82;7.53;;;;;;;;;;5095808;28;20130;-61
2021/07/18 13:40:52;;;;;;;7.15;6.30;;;;;;;;;;5095373;28;20395;-63
2021/07/18 13:43:20;;;;;;;7.32;6.63;;;;;;;;;;5095609;28;20367;-63
2021/07/18 13:45:53;;;;;;;8.75;7.70;;;;;;;;;;5095605;28;20032;-61
2021/07/18 13:48:23;;;;;;;8.48;7.47;;;;;;;;;;5077450;28;20031;-61
2021/07/18 13:50:49;;;;;;;8.48;7.13;;;;;;;;;;5095794;28;20063;-61
2021/07/18 13:53:15;;;;;;;8.23;7.30;;;;;;;;;;5095727;28;20054;-61
2021/07/18 13:55:41;;;;;;;8.20;7.50;;;;;;;;;;5095613;28;20031;-61
2021/07/18 13:58:07;;;;;;;9.00;7.05;;;;;;;;;;5095558;28;20355;-61
2021/07/18 14:00:33;;;;;;;17.75;7.55;;;;;;;;;;5095507;28;20513;-61
2021/07/18 14:02:58;;;;;;;7.32;6.57;;;;;;;;;;5095409;28;20020;-61
2021/07/18 14:05:24;;;;;;;9.50;7.97;;;;;;;;;;5095503;28;20038;-61
2021/07/18 14:07:49;;;;;;;8.85;7.07;;;;;;;;;;5094766;28;20487;-62
2021/07/18 14:10:15;;;;;;;7.50;6.80;;;;;;;;;;5095639;28;20020;-61
2021/07/18 14:12:41;;;;;;;8.48;7.18;;;;;;;;;;5095145;28;20019;-61
2021/07/18 14:15:11;;;;;;;9.00;7.47;;;;;;;;;;5076804;28;20433;-61
2021/07/18 14:17:36;;;;;;;9.63;7.50;;;;;;;;;;5076552;28;20507;-62
2021/07/18 14:20:05;;;;;;;8.48;7.38;;;;;;;;;;5094695;28;20149;-62
2021/07/18 14:22:30;;;;;;;11.18;8.02;;;;;;;;;;5094590;28;20017;-62
2021/07/18 14:24:55;;;;;;;10.90;7.75;;;;;;;;;;5094393;28;20360;-61